sensor_id;sensor_type;location;lat;lon;timestamp;P1;durP1;ratioP1;P2;durP2;ratioP2
6290;SDS011;3178;48.730;8.990;2023-04-16T00:00:37;12.03;;;9.73;;
6290;SDS011;3178;48.730;8.990;2023-04-16T00:03:03;11.77;;;10.20;;
6290;SDS011;3178;48.730;8.990;2023-04-16T00:05:28;11.73;;;10.40;;
6290;SDS011;3178;48.730;8.990;2023-04-16T00:07:54;13.30;;;10.00;;
6290;SDS011;3178;48.730;8.990;2023-04-16T00:10:19;12.23;;;9.40;;
6290;SDS011;3178;48.730;8.990;2023-04-16T00:12:45;14.13;;;9.80;;
6290;SDS011;3178;48.730;8.990;2023-04-16T00:15:10;12.17;;;10.60;;
6290;SDS011;3178;48.730;8.990;2023-04-16T00:17:36;10.40;;;9.30;;
6290;SDS011;3178;48.730;8.990;2023-04-16T00:20:01;9.53;;;8.53;;
6290;SDS011;3178;48.730;8.990;2023-04-16T00:22:27;13.13;;;9.30;;
6290;SDS011;3178;48.730;8.990;2023-04-16T00:24:52;13.90;;;9.90;;
6290;SDS011;3178;48.730;8.990;2023-04-16T00:27:18;11.20;;;9.70;;
6290;SDS011;3178;48.730;8.990;2023-04-16T00:29:44;12.17;;;9.57;;
6290;SDS011;3178;48.730;8.990;2023-04-16T00:32:09;11.73;;;10.20;;
6290;SDS011;3178;48.730;8.990;2023-04-16T00:34:35;10.73;;;9.10;;
6290;SDS011;3178;48.730;8.990;2023-04-16T00:37:00;11.40;;;9.87;;
6290;SDS011;3178;48.730;8.990;2023-04-16T00:39:26;12.80;;;10.10;;
6290;SDS011;3178;48.730;8.990;2023-04-16T00:41:51;11.33;;;9.73;;
6290;SDS011;3178;48.730;8.990;2023-04-16T00:44:17;13.03;;;10.03;;
6290;SDS011;3178;48.730;8.990;2023-04-16T00:46:42;14.17;;;8.30;;
6290;SDS011;3178;48.730;8.990;2023-04-16T00:49:09;10.43;;;8.70;;
6290;SDS011;3178;48.730;8.990;2023-04-16T00:51:34;11.10;;;9.17;;
6290;SDS011;3178;48.730;8.990;2023-04-16T00:54:01;12.93;;;9.93;;
6290;SDS011;3178;48.730;8.990;2023-04-16T00:56:27;12.23;;;9.57;;
6290;SDS011;3178;48.730;8.990;2023-04-16T00:58:53;11.77;;;9.67;;
6290;SDS011;3178;48.730;8.990;2023-04-16T01:01:20;13.70;;;9.90;;
6290;SDS011;3178;48.730;8.990;2023-04-16T01:03:46;10.40;;;9.00;;
6290;SDS011;3178;48.730;8.990;2023-04-16T01:06:12;12.07;;;8.93;;
6290;SDS011;3178;48.730;8.990;2023-04-16T01:08:40;10.43;;;8.80;;
6290;SDS011;3178;48.730;8.990;2023-04-16T01:11:05;11.60;;;9.17;;
6290;SDS011;3178;48.730;8.990;2023-04-16T01:13:31;11.47;;;8.37;;
6290;SDS011;3178;48.730;8.990;2023-04-16T01:15:57;11.00;;;8.90;;
6290;SDS011;3178;48.730;8.990;2023-04-16T01:18:24;8.67;;;7.63;;
6290;SDS011;3178;48.730;8.990;2023-04-16T01:20:50;10.90;;;8.93;;
6290;SDS011;3178;48.730;8.990;2023-04-16T01:23:17;12.23;;;8.50;;
6290;SDS011;3178;48.730;8.990;2023-04-16T01:25:43;10.00;;;8.00;;
6290;SDS011;3178;48.730;8.990;2023-04-16T01:28:09;10.90;;;8.67;;
6290;SDS011;3178;48.730;8.990;2023-04-16T01:30:34;11.13;;;7.97;;
6290;SDS011;3178;48.730;8.990;2023-04-16T01:33:00;9.60;;;8.33;;
6290;SDS011;3178;48.730;8.990;2023-04-16T01:35:25;8.23;;;7.30;;
6290;SDS011;3178;48.730;8.990;2023-04-16T01:37:51;8.30;;;7.03;;
6290;SDS011;3178;48.730;8.990;2023-04-16T01:40:17;8.47;;;7.43;;
6290;SDS011;3178;48.730;8.990;2023-04-16T01:42:43;9.67;;;7.10;;
6290;SDS011;3178;48.730;8.990;2023-04-16T01:45:08;7.50;;;6.20;;
6290;SDS011;3178;48.730;8.990;2023-04-16T01:47:35;10.30;;;7.53;;
6290;SDS011;3178;48.730;8.990;2023-04-16T01:50:01;7.60;;;6.53;;
6290;SDS011;3178;48.730;8.990;2023-04-16T01:52:27;7.90;;;7.10;;
6290;SDS011;3178;48.730;8.990;2023-04-16T01:54:53;8.47;;;6.50;;
6290;SDS011;3178;48.730;8.990;2023-04-16T01:57:18;8.03;;;5.90;;
6290;SDS011;3178;48.730;8.990;2023-04-16T01:59:44;7.93;;;6.67;;
6290;SDS011;3178;48.730;8.990;2023-04-16T02:02:12;8.50;;;6.93;;
6290;SDS011;3178;48.730;8.990;2023-04-16T02:04:40;7.97;;;6.67;;
6290;SDS011;3178;48.730;8.990;2023-04-16T02:07:09;7.47;;;5.83;;
6290;SDS011;3178;48.730;8.990;2023-04-16T02:09:36;10.43;;;6.20;;
6290;SDS011;3178;48.730;8.990;2023-04-16T02:12:03;6.50;;;5.50;;
6290;SDS011;3178;48.730;8.990;2023-04-16T02:14:29;8.17;;;6.07;;
6290;SDS011;3178;48.730;8.990;2023-04-16T02:16:56;7.83;;;6.37;;
6290;SDS011;3178;48.730;8.990;2023-04-16T02:19:22;8.27;;;6.60;;
6290;SDS011;3178;48.730;8.990;2023-04-16T02:21:48;8.30;;;6.60;;
6290;SDS011;3178;48.730;8.990;2023-04-16T02:24:15;8.03;;;6.67;;
6290;SDS011;3178;48.730;8.990;2023-04-16T02:26:41;7.70;;;6.90;;
6290;SDS011;3178;48.730;8.990;2023-04-16T02:29:06;9.07;;;6.57;;
6290;SDS011;3178;48.730;8.990;2023-04-16T02:31:32;8.30;;;6.43;;
6290;SDS011;3178;48.730;8.990;2023-04-16T02:33:58;10.80;;;6.33;;
6290;SDS011;3178;48.730;8.990;2023-04-16T02:36:23;9.13;;;7.20;;
6290;SDS011;3178;48.730;8.990;2023-04-16T02:38:49;8.27;;;6.57;;
6290;SDS011;3178;48.730;8.990;2023-04-16T02:41:15;8.67;;;6.57;;
6290;SDS011;3178;48.730;8.990;2023-04-16T02:43:41;13.17;;;10.63;;
6290;SDS011;3178;48.730;8.990;2023-04-16T02:46:06;9.90;;;8.00;;
6290;SDS011;3178;48.730;8.990;2023-04-16T02:48:32;8.30;;;6.13;;
6290;SDS011;3178;48.730;8.990;2023-04-16T02:50:57;7.80;;;6.77;;
6290;SDS011;3178;48.730;8.990;2023-04-16T02:53:23;7.50;;;6.47;;
6290;SDS011;3178;48.730;8.990;2023-04-16T02:55:49;8.47;;;7.03;;
6290;SDS011;3178;48.730;8.990;2023-04-16T02:58:16;8.87;;;6.97;;
6290;SDS011;3178;48.730;8.990;2023-04-16T03:00:45;9.90;;;6.67;;
6290;SDS011;3178;48.730;8.990;2023-04-16T03:03:11;7.73;;;6.47;;
6290;SDS011;3178;48.730;8.990;2023-04-16T03:05:37;7.30;;;6.50;;
6290;SDS011;3178;48.730;8.990;2023-04-16T03:08:03;8.73;;;6.90;;
6290;SDS011;3178;48.730;8.990;2023-04-16T03:10:28;12.17;;;7.80;;
6290;SDS011;3178;48.730;8.990;2023-04-16T03:12:54;10.60;;;7.80;;
6290;SDS011;3178;48.730;8.990;2023-04-16T03:15:20;8.90;;;7.83;;
6290;SDS011;3178;48.730;8.990;2023-04-16T03:17:45;11.97;;;8.57;;
6290;SDS011;3178;48.730;8.990;2023-04-16T03:20:11;12.60;;;8.43;;
6290;SDS011;3178;48.730;8.990;2023-04-16T03:22:38;11.53;;;8.80;;
6290;SDS011;3178;48.730;8.990;2023-04-16T03:25:04;11.40;;;8.93;;
6290;SDS011;3178;48.730;8.990;2023-04-16T03:27:33;11.83;;;8.60;;
6290;SDS011;3178;48.730;8.990;2023-04-16T03:29:59;12.50;;;9.20;;
6290;SDS011;3178;48.730;8.990;2023-04-16T03:32:25;12.60;;;9.00;;
6290;SDS011;3178;48.730;8.990;2023-04-16T03:34:50;14.40;;;9.77;;
6290;SDS011;3178;48.730;8.990;2023-04-16T03:37:16;12.60;;;9.40;;
6290;SDS011;3178;48.730;8.990;2023-04-16T03:39:41;13.00;;;10.33;;
6290;SDS011;3178;48.730;8.990;2023-04-16T03:42:07;14.03;;;10.00;;
6290;SDS011;3178;48.730;8.990;2023-04-16T03:44:33;13.50;;;9.73;;
6290;SDS011;3178;48.730;8.990;2023-04-16T03:46:59;13.43;;;9.63;;
6290;SDS011;3178;48.730;8.990;2023-04-16T03:49:25;11.57;;;9.00;;
6290;SDS011;3178;48.730;8.990;2023-04-16T03:51:50;15.37;;;9.97;;
6290;SDS011;3178;48.730;8.990;2023-04-16T03:54:16;10.80;;;8.33;;
6290;SDS011;3178;48.730;8.990;2023-04-16T03:56:41;13.97;;;8.93;;
6290;SDS011;3178;48.730;8.990;2023-04-16T03:59:07;10.20;;;8.00;;
6290;SDS011;3178;48.730;8.990;2023-04-16T04:01:33;10.07;;;7.80;;
6290;SDS011;3178;48.730;8.990;2023-04-16T04:03:59;12.27;;;8.40;;
6290;SDS011;3178;48.730;8.990;2023-04-16T04:06:25;10.43;;;8.33;;
6290;SDS011;3178;48.730;8.990;2023-04-16T04:08:51;14.77;;;8.53;;
6290;SDS011;3178;48.730;8.990;2023-04-16T04:11:17;13.50;;;9.03;;
6290;SDS011;3178;48.730;8.990;2023-04-16T04:13:42;12.43;;;9.73;;
6290;SDS011;3178;48.730;8.990;2023-04-16T04:16:08;12.90;;;8.37;;
6290;SDS011;3178;48.730;8.990;2023-04-16T04:18:33;11.73;;;9.03;;
6290;SDS011;3178;48.730;8.990;2023-04-16T04:20:59;13.73;;;7.20;;
6290;SDS011;3178;48.730;8.990;2023-04-16T04:23:32;11.77;;;7.83;;
6290;SDS011;3178;48.730;8.990;2023-04-16T04:25:57;10.80;;;8.60;;
6290;SDS011;3178;48.730;8.990;2023-04-16T04:28:23;11.40;;;8.53;;
6290;SDS011;3178;48.730;8.990;2023-04-16T04:30:49;10.67;;;8.10;;
6290;SDS011;3178;48.730;8.990;2023-04-16T04:33:14;11.90;;;8.90;;
6290;SDS011;3178;48.730;8.990;2023-04-16T04:35:40;14.03;;;6.73;;
6290;SDS011;3178;48.730;8.990;2023-04-16T04:38:05;12.83;;;9.20;;
6290;SDS011;3178;48.730;8.990;2023-04-16T04:40:31;10.40;;;8.17;;
6290;SDS011;3178;48.730;8.990;2023-04-16T04:42:56;9.43;;;7.70;;
6290;SDS011;3178;48.730;8.990;2023-04-16T04:45:22;11.80;;;9.23;;
6290;SDS011;3178;48.730;8.990;2023-04-16T04:47:51;10.67;;;7.53;;
6290;SDS011;3178;48.730;8.990;2023-04-16T04:50:17;11.50;;;8.73;;
6290;SDS011;3178;48.730;8.990;2023-04-16T04:52:42;12.33;;;8.73;;
6290;SDS011;3178;48.730;8.990;2023-04-16T04:55:08;9.33;;;7.60;;
6290;SDS011;3178;48.730;8.990;2023-04-16T04:57:33;12.07;;;8.40;;
6290;SDS011;3178;48.730;8.990;2023-04-16T04:59:59;12.27;;;8.27;;
6290;SDS011;3178;48.730;8.990;2023-04-16T05:02:27;12.50;;;9.03;;
6290;SDS011;3178;48.730;8.990;2023-04-16T05:04:52;12.80;;;9.20;;
6290;SDS011;3178;48.730;8.990;2023-04-16T05:07:18;12.10;;;9.33;;
6290;SDS011;3178;48.730;8.990;2023-04-16T05:09:45;11.93;;;8.27;;
6290;SDS011;3178;48.730;8.990;2023-04-16T05:12:10;14.80;;;8.60;;
6290;SDS011;3178;48.730;8.990;2023-04-16T05:14:36;13.70;;;9.70;;
6290;SDS011;3178;48.730;8.990;2023-04-16T05:17:01;14.90;;;10.30;;
6290;SDS011;3178;48.730;8.990;2023-04-16T05:19:27;20.50;;;12.23;;
6290;SDS011;3178;48.730;8.990;2023-04-16T05:21:53;25.23;;;14.50;;
6290;SDS011;3178;48.730;8.990;2023-04-16T05:24:18;22.70;;;15.70;;
6290;SDS011;3178;48.730;8.990;2023-04-16T05:26:44;24.73;;;15.57;;
6290;SDS011;3178;48.730;8.990;2023-04-16T05:29:09;31.20;;;16.87;;
6290;SDS011;3178;48.730;8.990;2023-04-16T05:31:35;25.57;;;17.67;;
6290;SDS011;3178;48.730;8.990;2023-04-16T05:34:00;24.73;;;17.70;;
6290;SDS011;3178;48.730;8.990;2023-04-16T05:36:26;28.33;;;16.90;;
6290;SDS011;3178;48.730;8.990;2023-04-16T05:38:52;27.60;;;16.23;;
6290;SDS011;3178;48.730;8.990;2023-04-16T05:41:17;27.07;;;17.00;;
6290;SDS011;3178;48.730;8.990;2023-04-16T05:43:43;23.07;;;16.50;;
6290;SDS011;3178;48.730;8.990;2023-04-16T05:46:08;28.80;;;17.47;;
6290;SDS011;3178;48.730;8.990;2023-04-16T05:48:34;30.73;;;17.87;;
6290;SDS011;3178;48.730;8.990;2023-04-16T05:50:59;29.73;;;21.23;;
6290;SDS011;3178;48.730;8.990;2023-04-16T05:53:26;30.13;;;21.60;;
6290;SDS011;3178;48.730;8.990;2023-04-16T05:55:53;42.37;;;27.70;;
6290;SDS011;3178;48.730;8.990;2023-04-16T05:58:18;31.87;;;20.33;;
6290;SDS011;3178;48.730;8.990;2023-04-16T06:00:44;32.70;;;21.37;;
6290;SDS011;3178;48.730;8.990;2023-04-16T06:03:09;31.37;;;21.40;;
6290;SDS011;3178;48.730;8.990;2023-04-16T06:05:35;29.80;;;19.80;;
6290;SDS011;3178;48.730;8.990;2023-04-16T06:08:00;28.07;;;18.20;;
6290;SDS011;3178;48.730;8.990;2023-04-16T06:10:26;31.83;;;19.70;;
6290;SDS011;3178;48.730;8.990;2023-04-16T06:12:52;27.20;;;18.60;;
6290;SDS011;3178;48.730;8.990;2023-04-16T06:15:17;33.37;;;20.40;;
6290;SDS011;3178;48.730;8.990;2023-04-16T06:17:43;28.23;;;19.87;;
6290;SDS011;3178;48.730;8.990;2023-04-16T06:20:09;30.07;;;20.00;;
6290;SDS011;3178;48.730;8.990;2023-04-16T06:22:35;33.50;;;21.90;;
6290;SDS011;3178;48.730;8.990;2023-04-16T06:25:00;32.63;;;20.37;;
6290;SDS011;3178;48.730;8.990;2023-04-16T06:27:26;31.00;;;19.50;;
6290;SDS011;3178;48.730;8.990;2023-04-16T06:29:52;36.73;;;21.47;;
6290;SDS011;3178;48.730;8.990;2023-04-16T06:32:17;31.93;;;20.60;;
6290;SDS011;3178;48.730;8.990;2023-04-16T06:34:43;36.57;;;22.80;;
6290;SDS011;3178;48.730;8.990;2023-04-16T06:37:08;41.50;;;23.10;;
6290;SDS011;3178;48.730;8.990;2023-04-16T06:39:34;35.57;;;22.20;;
6290;SDS011;3178;48.730;8.990;2023-04-16T06:42:00;37.77;;;24.40;;
6290;SDS011;3178;48.730;8.990;2023-04-16T06:44:25;42.13;;;23.80;;
6290;SDS011;3178;48.730;8.990;2023-04-16T06:46:51;40.20;;;23.80;;
6290;SDS011;3178;48.730;8.990;2023-04-16T06:49:16;38.57;;;23.77;;
6290;SDS011;3178;48.730;8.990;2023-04-16T06:51:42;38.77;;;24.67;;
6290;SDS011;3178;48.730;8.990;2023-04-16T06:54:07;38.07;;;24.00;;
6290;SDS011;3178;48.730;8.990;2023-04-16T06:56:33;44.47;;;25.87;;
6290;SDS011;3178;48.730;8.990;2023-04-16T06:59:00;39.50;;;24.70;;
6290;SDS011;3178;48.730;8.990;2023-04-16T07:01:26;35.70;;;23.63;;
6290;SDS011;3178;48.730;8.990;2023-04-16T07:03:52;50.23;;;26.73;;
6290;SDS011;3178;48.730;8.990;2023-04-16T07:06:18;39.90;;;24.60;;
6290;SDS011;3178;48.730;8.990;2023-04-16T07:08:43;34.33;;;22.87;;
6290;SDS011;3178;48.730;8.990;2023-04-16T07:11:09;36.70;;;22.73;;
6290;SDS011;3178;48.730;8.990;2023-04-16T07:13:34;42.10;;;27.87;;
6290;SDS011;3178;48.730;8.990;2023-04-16T07:16:00;62.50;;;38.60;;
6290;SDS011;3178;48.730;8.990;2023-04-16T07:18:25;35.43;;;22.80;;
6290;SDS011;3178;48.730;8.990;2023-04-16T07:20:51;36.30;;;21.93;;
6290;SDS011;3178;48.730;8.990;2023-04-16T07:23:16;35.50;;;22.40;;
6290;SDS011;3178;48.730;8.990;2023-04-16T07:25:42;32.83;;;21.10;;
6290;SDS011;3178;48.730;8.990;2023-04-16T07:28:07;32.80;;;20.87;;
6290;SDS011;3178;48.730;8.990;2023-04-16T07:30:33;32.37;;;20.70;;
6290;SDS011;3178;48.730;8.990;2023-04-16T07:33:00;31.97;;;20.73;;
6290;SDS011;3178;48.730;8.990;2023-04-16T07:35:28;34.23;;;20.30;;
6290;SDS011;3178;48.730;8.990;2023-04-16T07:37:54;35.67;;;21.27;;
6290;SDS011;3178;48.730;8.990;2023-04-16T07:40:20;30.20;;;20.27;;
6290;SDS011;3178;48.730;8.990;2023-04-16T07:42:45;35.67;;;20.70;;
6290;SDS011;3178;48.730;8.990;2023-04-16T07:45:11;28.93;;;19.40;;
6290;SDS011;3178;48.730;8.990;2023-04-16T07:47:36;33.17;;;21.17;;
6290;SDS011;3178;48.730;8.990;2023-04-16T07:50:02;29.13;;;18.40;;
6290;SDS011;3178;48.730;8.990;2023-04-16T07:52:28;28.70;;;19.07;;
6290;SDS011;3178;48.730;8.990;2023-04-16T07:54:53;26.67;;;18.30;;
6290;SDS011;3178;48.730;8.990;2023-04-16T07:57:19;28.90;;;19.00;;
6290;SDS011;3178;48.730;8.990;2023-04-16T07:59:45;28.80;;;18.70;;
6290;SDS011;3178;48.730;8.990;2023-04-16T08:02:12;29.77;;;18.40;;
6290;SDS011;3178;48.730;8.990;2023-04-16T08:04:40;30.53;;;19.43;;
6290;SDS011;3178;48.730;8.990;2023-04-16T08:07:09;27.20;;;18.43;;
6290;SDS011;3178;48.730;8.990;2023-04-16T08:09:34;30.50;;;19.60;;
6290;SDS011;3178;48.730;8.990;2023-04-16T08:12:00;29.57;;;19.47;;
6290;SDS011;3178;48.730;8.990;2023-04-16T08:14:26;28.03;;;17.83;;
6290;SDS011;3178;48.730;8.990;2023-04-16T08:16:52;27.47;;;18.30;;
6290;SDS011;3178;48.730;8.990;2023-04-16T08:19:18;30.73;;;19.83;;
6290;SDS011;3178;48.730;8.990;2023-04-16T08:21:43;32.93;;;19.77;;
6290;SDS011;3178;48.730;8.990;2023-04-16T08:24:09;33.07;;;19.77;;
6290;SDS011;3178;48.730;8.990;2023-04-16T08:26:35;32.63;;;22.30;;
6290;SDS011;3178;48.730;8.990;2023-04-16T08:29:01;29.97;;;20.10;;
6290;SDS011;3178;48.730;8.990;2023-04-16T08:31:26;27.60;;;18.00;;
6290;SDS011;3178;48.730;8.990;2023-04-16T08:33:52;25.40;;;17.97;;
6290;SDS011;3178;48.730;8.990;2023-04-16T08:36:17;25.87;;;18.00;;
6290;SDS011;3178;48.730;8.990;2023-04-16T08:38:43;29.60;;;18.53;;
6290;SDS011;3178;48.730;8.990;2023-04-16T08:41:11;29.67;;;19.10;;
6290;SDS011;3178;48.730;8.990;2023-04-16T08:43:37;26.80;;;17.73;;
6290;SDS011;3178;48.730;8.990;2023-04-16T08:46:06;23.17;;;16.07;;
6290;SDS011;3178;48.730;8.990;2023-04-16T08:48:33;28.63;;;15.80;;
6290;SDS011;3178;48.730;8.990;2023-04-16T08:51:00;29.80;;;18.50;;
6290;SDS011;3178;48.730;8.990;2023-04-16T08:53:35;29.23;;;18.47;;
6290;SDS011;3178;48.730;8.990;2023-04-16T08:56:11;31.83;;;17.97;;
6290;SDS011;3178;48.730;8.990;2023-04-16T08:58:38;22.30;;;15.63;;
6290;SDS011;3178;48.730;8.990;2023-04-16T09:01:04;25.80;;;16.13;;
6290;SDS011;3178;48.730;8.990;2023-04-16T09:03:30;29.80;;;17.47;;
6290;SDS011;3178;48.730;8.990;2023-04-16T09:05:56;29.80;;;16.73;;
6290;SDS011;3178;48.730;8.990;2023-04-16T09:08:24;23.87;;;15.57;;
6290;SDS011;3178;48.730;8.990;2023-04-16T09:10:50;23.07;;;15.80;;
6290;SDS011;3178;48.730;8.990;2023-04-16T09:13:16;27.40;;;15.63;;
6290;SDS011;3178;48.730;8.990;2023-04-16T09:15:44;23.67;;;14.57;;
6290;SDS011;3178;48.730;8.990;2023-04-16T09:18:10;27.70;;;16.50;;
6290;SDS011;3178;48.730;8.990;2023-04-16T09:20:36;26.43;;;16.90;;
6290;SDS011;3178;48.730;8.990;2023-04-16T09:23:04;24.33;;;16.00;;
6290;SDS011;3178;48.730;8.990;2023-04-16T09:25:33;25.17;;;15.67;;
6290;SDS011;3178;48.730;8.990;2023-04-16T09:27:59;21.73;;;15.43;;
6290;SDS011;3178;48.730;8.990;2023-04-16T09:30:25;28.57;;;17.23;;
6290;SDS011;3178;48.730;8.990;2023-04-16T09:32:58;24.30;;;16.87;;
6290;SDS011;3178;48.730;8.990;2023-04-16T09:35:47;33.37;;;21.73;;
6290;SDS011;3178;48.730;8.990;2023-04-16T09:38:14;28.33;;;16.57;;
6290;SDS011;3178;48.730;8.990;2023-04-16T09:40:40;25.77;;;17.27;;
6290;SDS011;3178;48.730;8.990;2023-04-16T09:43:10;28.57;;;18.03;;
6290;SDS011;3178;48.730;8.990;2023-04-16T09:48:30;24.60;;;17.00;;
6290;SDS011;3178;48.730;8.990;2023-04-16T09:50:57;29.40;;;18.87;;
6290;SDS011;3178;48.730;8.990;2023-04-16T09:53:27;29.33;;;18.13;;
6290;SDS011;3178;48.730;8.990;2023-04-16T09:55:57;31.43;;;18.33;;
6290;SDS011;3178;48.730;8.990;2023-04-16T09:58:24;26.27;;;18.10;;
6290;SDS011;3178;48.730;8.990;2023-04-16T10:01:09;32.97;;;18.67;;
6290;SDS011;3178;48.730;8.990;2023-04-16T10:03:37;27.23;;;17.87;;
6290;SDS011;3178;48.730;8.990;2023-04-16T10:06:17;27.00;;;17.70;;
6290;SDS011;3178;48.730;8.990;2023-04-16T10:11:13;29.93;;;18.40;;
6290;SDS011;3178;48.730;8.990;2023-04-16T10:13:39;29.37;;;17.80;;
6290;SDS011;3178;48.730;8.990;2023-04-16T10:16:05;25.57;;;16.53;;
6290;SDS011;3178;48.730;8.990;2023-04-16T10:18:32;33.07;;;18.33;;
6290;SDS011;3178;48.730;8.990;2023-04-16T10:21:02;34.03;;;17.37;;
6290;SDS011;3178;48.730;8.990;2023-04-16T10:23:29;29.00;;;17.93;;
6290;SDS011;3178;48.730;8.990;2023-04-16T10:25:54;28.27;;;18.50;;
6290;SDS011;3178;48.730;8.990;2023-04-16T10:28:22;30.60;;;18.63;;
6290;SDS011;3178;48.730;8.990;2023-04-16T10:30:48;29.30;;;18.00;;
6290;SDS011;3178;48.730;8.990;2023-04-16T10:33:19;31.20;;;18.90;;
6290;SDS011;3178;48.730;8.990;2023-04-16T10:35:45;32.33;;;18.70;;
6290;SDS011;3178;48.730;8.990;2023-04-16T10:38:21;30.00;;;16.70;;
6290;SDS011;3178;48.730;8.990;2023-04-16T10:40:57;31.83;;;17.47;;
6290;SDS011;3178;48.730;8.990;2023-04-16T10:43:24;43.57;;;28.37;;
6290;SDS011;3178;48.730;8.990;2023-04-16T10:45:49;28.77;;;18.70;;
6290;SDS011;3178;48.730;8.990;2023-04-16T10:48:17;27.73;;;16.73;;
6290;SDS011;3178;48.730;8.990;2023-04-16T10:50:43;30.53;;;18.40;;
6290;SDS011;3178;48.730;8.990;2023-04-16T10:53:22;26.83;;;17.30;;
6290;SDS011;3178;48.730;8.990;2023-04-16T10:55:56;27.10;;;16.10;;
6290;SDS011;3178;48.730;8.990;2023-04-16T10:58:26;25.70;;;15.60;;
6290;SDS011;3178;48.730;8.990;2023-04-16T11:00:52;24.10;;;15.73;;
6290;SDS011;3178;48.730;8.990;2023-04-16T11:03:18;22.47;;;14.60;;
6290;SDS011;3178;48.730;8.990;2023-04-16T11:05:44;25.30;;;15.20;;
6290;SDS011;3178;48.730;8.990;2023-04-16T11:08:13;21.67;;;13.37;;
6290;SDS011;3178;48.730;8.990;2023-04-16T11:10:40;21.80;;;13.60;;
6290;SDS011;3178;48.730;8.990;2023-04-16T11:13:06;20.70;;;14.80;;
6290;SDS011;3178;48.730;8.990;2023-04-16T11:15:32;20.93;;;12.60;;
6290;SDS011;3178;48.730;8.990;2023-04-16T11:17:58;20.30;;;13.37;;
6290;SDS011;3178;48.730;8.990;2023-04-16T11:20:25;19.53;;;12.20;;
6290;SDS011;3178;48.730;8.990;2023-04-16T11:22:55;15.70;;;11.20;;
6290;SDS011;3178;48.730;8.990;2023-04-16T11:25:25;19.43;;;12.13;;
6290;SDS011;3178;48.730;8.990;2023-04-16T11:27:53;18.30;;;12.20;;
6290;SDS011;3178;48.730;8.990;2023-04-16T11:30:29;15.90;;;10.77;;
6290;SDS011;3178;48.730;8.990;2023-04-16T11:32:57;17.33;;;11.70;;
6290;SDS011;3178;48.730;8.990;2023-04-16T11:35:23;17.53;;;11.87;;
6290;SDS011;3178;48.730;8.990;2023-04-16T11:37:48;16.03;;;10.70;;
6290;SDS011;3178;48.730;8.990;2023-04-16T11:40:19;15.27;;;10.47;;
6290;SDS011;3178;48.730;8.990;2023-04-16T11:42:45;17.53;;;10.90;;
6290;SDS011;3178;48.730;8.990;2023-04-16T11:45:10;17.83;;;9.93;;
6290;SDS011;3178;48.730;8.990;2023-04-16T11:47:49;15.60;;;9.83;;
6290;SDS011;3178;48.730;8.990;2023-04-16T11:50:20;18.27;;;9.70;;
6290;SDS011;3178;48.730;8.990;2023-04-16T11:52:48;19.73;;;11.60;;
6290;SDS011;3178;48.730;8.990;2023-04-16T11:55:15;18.20;;;11.97;;
6290;SDS011;3178;48.730;8.990;2023-04-16T11:57:41;18.27;;;11.93;;
6290;SDS011;3178;48.730;8.990;2023-04-16T12:00:06;15.90;;;10.13;;
6290;SDS011;3178;48.730;8.990;2023-04-16T12:07:54;13.60;;;8.70;;
6290;SDS011;3178;48.730;8.990;2023-04-16T12:10:24;14.67;;;8.03;;
6290;SDS011;3178;48.730;8.990;2023-04-16T12:12:50;11.73;;;7.30;;
6290;SDS011;3178;48.730;8.990;2023-04-16T12:15:15;8.87;;;6.30;;
6290;SDS011;3178;48.730;8.990;2023-04-16T12:17:41;7.53;;;6.03;;
6290;SDS011;3178;48.730;8.990;2023-04-16T12:20:08;7.40;;;4.10;;
6290;SDS011;3178;48.730;8.990;2023-04-16T12:22:38;5.30;;;3.93;;
6290;SDS011;3178;48.730;8.990;2023-04-16T12:25:10;4.70;;;4.20;;
6290;SDS011;3178;48.730;8.990;2023-04-16T12:27:40;7.23;;;3.67;;
6290;SDS011;3178;48.730;8.990;2023-04-16T12:30:17;4.57;;;3.67;;
6290;SDS011;3178;48.730;8.990;2023-04-16T12:32:44;5.37;;;4.00;;
6290;SDS011;3178;48.730;8.990;2023-04-16T12:35:12;5.03;;;3.77;;
6290;SDS011;3178;48.730;8.990;2023-04-16T12:37:52;6.33;;;3.83;;
6290;SDS011;3178;48.730;8.990;2023-04-16T12:40:18;4.80;;;3.43;;
6290;SDS011;3178;48.730;8.990;2023-04-16T12:42:43;4.50;;;3.87;;
6290;SDS011;3178;48.730;8.990;2023-04-16T12:45:09;4.30;;;3.30;;
6290;SDS011;3178;48.730;8.990;2023-04-16T12:47:35;3.93;;;3.40;;
6290;SDS011;3178;48.730;8.990;2023-04-16T12:50:00;4.20;;;3.60;;
6290;SDS011;3178;48.730;8.990;2023-04-16T12:52:26;5.27;;;3.60;;
6290;SDS011;3178;48.730;8.990;2023-04-16T12:54:51;4.97;;;4.00;;
6290;SDS011;3178;48.730;8.990;2023-04-16T12:57:17;5.60;;;3.67;;
6290;SDS011;3178;48.730;8.990;2023-04-16T12:59:43;5.57;;;3.70;;
6290;SDS011;3178;48.730;8.990;2023-04-16T13:02:08;4.93;;;3.83;;
6290;SDS011;3178;48.730;8.990;2023-04-16T13:04:34;6.07;;;4.50;;
6290;SDS011;3178;48.730;8.990;2023-04-16T13:06:59;7.00;;;5.40;;
6290;SDS011;3178;48.730;8.990;2023-04-16T13:09:25;5.10;;;4.60;;
6290;SDS011;3178;48.730;8.990;2023-04-16T13:11:51;6.60;;;4.30;;
6290;SDS011;3178;48.730;8.990;2023-04-16T13:14:16;4.70;;;3.77;;
6290;SDS011;3178;48.730;8.990;2023-04-16T13:16:43;4.80;;;3.97;;
6290;SDS011;3178;48.730;8.990;2023-04-16T13:19:08;6.93;;;4.77;;
6290;SDS011;3178;48.730;8.990;2023-04-16T13:21:34;6.60;;;4.27;;
6290;SDS011;3178;48.730;8.990;2023-04-16T13:23:59;5.70;;;4.40;;
6290;SDS011;3178;48.730;8.990;2023-04-16T13:26:25;5.30;;;4.30;;
6290;SDS011;3178;48.730;8.990;2023-04-16T13:28:51;4.00;;;3.50;;
6290;SDS011;3178;48.730;8.990;2023-04-16T13:31:16;6.33;;;5.10;;
6290;SDS011;3178;48.730;8.990;2023-04-16T13:33:44;12.80;;;4.57;;
6290;SDS011;3178;48.730;8.990;2023-04-16T13:36:10;6.40;;;5.40;;
6290;SDS011;3178;48.730;8.990;2023-04-16T13:38:36;6.07;;;4.90;;
6290;SDS011;3178;48.730;8.990;2023-04-16T13:41:02;10.73;;;6.03;;
6290;SDS011;3178;48.730;8.990;2023-04-16T13:43:28;10.30;;;7.00;;
6290;SDS011;3178;48.730;8.990;2023-04-16T13:45:54;8.10;;;6.07;;
6290;SDS011;3178;48.730;8.990;2023-04-16T13:48:20;11.10;;;6.33;;
6290;SDS011;3178;48.730;8.990;2023-04-16T13:50:45;7.70;;;5.87;;
6290;SDS011;3178;48.730;8.990;2023-04-16T13:53:11;6.90;;;5.33;;
6290;SDS011;3178;48.730;8.990;2023-04-16T13:55:36;7.40;;;5.37;;
6290;SDS011;3178;48.730;8.990;2023-04-16T13:58:02;7.97;;;6.00;;
6290;SDS011;3178;48.730;8.990;2023-04-16T14:00:27;6.80;;;5.63;;
6290;SDS011;3178;48.730;8.990;2023-04-16T14:02:53;7.63;;;5.50;;
6290;SDS011;3178;48.730;8.990;2023-04-16T14:05:18;8.13;;;5.80;;
6290;SDS011;3178;48.730;8.990;2023-04-16T14:07:44;9.87;;;7.27;;
6290;SDS011;3178;48.730;8.990;2023-04-16T14:10:10;10.00;;;7.60;;
6290;SDS011;3178;48.730;8.990;2023-04-16T14:12:36;11.57;;;7.73;;
6290;SDS011;3178;48.730;8.990;2023-04-16T14:15:04;13.17;;;9.23;;
6290;SDS011;3178;48.730;8.990;2023-04-16T14:17:30;12.10;;;8.10;;
6290;SDS011;3178;48.730;8.990;2023-04-16T14:19:56;12.03;;;6.80;;
6290;SDS011;3178;48.730;8.990;2023-04-16T14:22:22;10.87;;;7.80;;
6290;SDS011;3178;48.730;8.990;2023-04-16T14:24:47;12.03;;;7.40;;
6290;SDS011;3178;48.730;8.990;2023-04-16T14:27:13;12.83;;;8.13;;
6290;SDS011;3178;48.730;8.990;2023-04-16T14:29:38;12.33;;;7.97;;
6290;SDS011;3178;48.730;8.990;2023-04-16T14:32:05;12.57;;;8.50;;
6290;SDS011;3178;48.730;8.990;2023-04-16T14:34:30;10.60;;;7.93;;
6290;SDS011;3178;48.730;8.990;2023-04-16T14:36:56;9.93;;;7.80;;
6290;SDS011;3178;48.730;8.990;2023-04-16T14:39:21;11.70;;;9.00;;
6290;SDS011;3178;48.730;8.990;2023-04-16T14:41:48;12.93;;;8.70;;
6290;SDS011;3178;48.730;8.990;2023-04-16T14:44:14;13.10;;;9.13;;
6290;SDS011;3178;48.730;8.990;2023-04-16T14:46:40;11.47;;;8.63;;
6290;SDS011;3178;48.730;8.990;2023-04-16T14:49:05;11.80;;;8.60;;
6290;SDS011;3178;48.730;8.990;2023-04-16T14:51:31;11.57;;;8.47;;
6290;SDS011;3178;48.730;8.990;2023-04-16T14:53:57;11.17;;;8.03;;
6290;SDS011;3178;48.730;8.990;2023-04-16T14:56:23;16.47;;;10.00;;
6290;SDS011;3178;48.730;8.990;2023-04-16T14:58:49;14.80;;;10.53;;
6290;SDS011;3178;48.730;8.990;2023-04-16T15:01:14;15.53;;;11.27;;
6290;SDS011;3178;48.730;8.990;2023-04-16T15:03:40;16.93;;;10.60;;